createdAt,value
2018-02-19T00:00:39.164Z,39.50
2018-02-19T00:03:07.324Z,59.53
2018-02-19T00:05:35.990Z,50.60
2018-02-19T00:08:05.553Z,83.87
2018-02-19T00:10:33.736Z,93.87
2018-02-19T00:13:01.914Z,87.03
2018-02-19T00:15:30.051Z,95.53
2018-02-19T00:17:58.287Z,133.77
2018-02-19T00:20:26.453Z,130.93
2018-02-19T00:22:54.683Z,117.37
2018-02-19T00:25:22.849Z,113.33
2018-02-19T00:27:51.051Z,126.37
2018-02-19T00:30:19.229Z,143.87
2018-02-19T00:32:47.378Z,132.83
2018-02-19T00:35:15.617Z,162.93
2018-02-19T00:37:44.562Z,180.30
2018-02-19T00:40:13.141Z,182.00
2018-02-19T00:42:41.294Z,169.43
2018-02-19T00:45:09.463Z,195.63
2018-02-19T00:47:37.615Z,214.60
2018-02-19T00:50:06.505Z,212.87
2018-02-19T00:52:35.497Z,211.97
2018-02-19T00:55:03.863Z,224.63
2018-02-19T00:57:32.035Z,230.63
2018-02-19T01:00:00.286Z,244.00
2018-02-19T01:02:28.530Z,221.30
2018-02-19T01:04:56.699Z,214.93
2018-02-19T01:07:25.009Z,221.10
2018-02-19T01:09:53.214Z,232.87
2018-02-19T01:12:21.420Z,214.80
2018-02-19T01:14:50.338Z,230.50
2018-02-19T01:17:19.254Z,209.03
2018-02-19T01:19:47.380Z,228.40
2018-02-19T01:22:16.298Z,212.83
2018-02-19T01:24:44.516Z,197.57
2018-02-19T01:27:12.664Z,207.30
2018-02-19T01:29:40.834Z,204.03
2018-02-19T01:32:08.953Z,207.77
2018-02-19T01:34:37.178Z,179.37
2018-02-19T01:37:09.371Z,163.43
2018-02-19T01:39:37.517Z,184.70
2018-02-19T01:42:05.659Z,145.27
2018-02-19T01:44:34.573Z,152.87
2018-02-19T01:47:02.723Z,139.97
2018-02-19T01:49:31.627Z,116.03
2018-02-19T01:51:59.768Z,121.33
2018-02-19T01:54:27.895Z,107.77
2018-02-19T01:56:56.066Z,92.73
2018-02-19T01:59:24.204Z,93.40
2018-02-19T02:01:53.085Z,75.70
2018-02-19T02:04:21.229Z,57.93
2018-02-19T02:06:49.381Z,57.97
2018-02-19T02:09:18.274Z,60.90
2018-02-19T02:11:46.613Z,66.93
2018-02-19T02:14:15.533Z,67.93
2018-02-19T02:16:43.723Z,47.63
2018-02-19T02:19:11.996Z,41.60
2018-02-19T02:21:40.162Z,47.07
2018-02-19T02:24:08.315Z,40.77
2018-02-19T02:26:37.226Z,40.27
2018-02-19T02:29:05.353Z,43.23
2018-02-19T02:31:33.699Z,34.30
2018-02-19T02:34:01.854Z,38.20
2018-02-19T02:36:29.975Z,27.20
2018-02-19T02:38:58.970Z,30.27
2018-02-19T02:41:27.142Z,31.67
2018-02-19T02:43:55.352Z,35.17
2018-02-19T02:46:24.267Z,31.33
2018-02-19T02:48:52.410Z,29.00
2018-02-19T02:51:21.333Z,29.83
2018-02-19T02:53:49.528Z,33.43
2018-02-19T02:56:17.671Z,31.40
2018-02-19T02:58:45.854Z,31.93
2018-02-19T03:01:13.999Z,34.03
2018-02-19T03:03:42.897Z,31.20
2018-02-19T03:06:11.790Z,37.53
2018-02-19T03:08:39.932Z,29.17
2018-02-19T03:11:08.157Z,30.07
2018-02-19T03:13:36.407Z,35.00
2018-02-19T03:16:05.289Z,34.43
2018-02-19T03:18:34.223Z,30.33
2018-02-19T03:21:02.356Z,34.10
2018-02-19T03:23:31.315Z,29.30
2018-02-19T03:25:59.526Z,39.03
2018-02-19T03:28:28.420Z,33.47
2018-02-19T03:30:57.322Z,32.63
2018-02-19T03:33:26.364Z,28.93
2018-02-19T03:35:54.531Z,27.33
2018-02-19T03:38:22.681Z,26.53
2018-02-19T03:40:50.811Z,30.50
2018-02-19T03:43:19.325Z,30.17
2018-02-19T03:45:47.444Z,30.73
2018-02-19T03:48:15.606Z,28.93
2018-02-19T03:50:43.757Z,24.87
2018-02-19T03:53:12.695Z,27.47
2018-02-19T03:55:40.862Z,31.23
2018-02-19T03:58:09.816Z,29.17
2018-02-19T04:00:37.994Z,27.97
2018-02-19T04:03:06.185Z,29.80
2018-02-19T04:05:34.396Z,24.73
2018-02-19T04:08:02.653Z,24.90
2018-02-19T04:10:30.854Z,26.33
2018-02-19T04:12:59.136Z,25.37
2018-02-19T04:15:28.100Z,25.80
2018-02-19T04:17:57.348Z,30.17
2018-02-19T04:20:25.480Z,29.93
2018-02-19T04:22:53.637Z,28.53
2018-02-19T04:25:21.771Z,26.13
2018-02-19T04:27:49.927Z,24.07
2018-02-19T04:30:18.838Z,26.13
2018-02-19T04:32:47.005Z,21.33
2018-02-19T04:35:15.939Z,20.20
2018-02-19T04:37:44.145Z,20.87
2018-02-19T04:40:13.095Z,19.47
2018-02-19T04:42:41.221Z,21.77
2018-02-19T04:45:15.983Z,21.63
2018-02-19T04:47:44.127Z,23.27
2018-02-19T04:50:13.043Z,20.70
2018-02-19T04:52:41.175Z,22.03
2018-02-19T04:55:09.318Z,25.47
2018-02-19T04:57:37.490Z,18.77
2018-02-19T05:00:05.633Z,26.37
2018-02-19T05:02:33.914Z,19.40
2018-02-19T05:05:02.910Z,20.57
2018-02-19T05:07:31.058Z,19.67
2018-02-19T05:09:59.957Z,19.13
2018-02-19T05:12:29.337Z,21.27
2018-02-19T05:14:57.476Z,23.20
2018-02-19T05:17:25.651Z,23.30
2018-02-19T05:19:53.790Z,18.03
2018-02-19T05:22:22.726Z,29.00
2018-02-19T05:24:50.873Z,33.13
2018-02-19T05:27:19.048Z,28.40
2018-02-19T05:29:47.210Z,24.20
2018-02-19T05:32:15.340Z,28.67
2018-02-19T05:34:43.496Z,23.10
2018-02-19T05:37:11.617Z,25.00
2018-02-19T05:39:40.509Z,32.97
2018-02-19T05:42:09.396Z,27.10
2018-02-19T05:44:38.352Z,29.50
2018-02-19T05:47:06.498Z,23.87
2018-02-19T05:49:34.805Z,23.83
2018-02-19T05:52:02.936Z,26.30
2018-02-19T05:54:31.049Z,22.50
2018-02-19T05:56:59.170Z,19.80
2018-02-19T05:59:28.092Z,25.03
2018-02-19T06:01:56.243Z,25.43
2018-02-19T06:04:24.491Z,18.73
2018-02-19T06:06:53.433Z,23.77
2018-02-19T06:09:21.597Z,25.33
2018-02-19T06:11:49.759Z,25.97
2018-02-19T06:14:17.911Z,22.80
2018-02-19T06:16:46.813Z,17.80
2018-02-19T06:19:15.907Z,23.23
2018-02-19T06:21:44.865Z,24.77
2018-02-19T06:24:13.019Z,23.17
2018-02-19T06:26:41.175Z,21.97
2018-02-19T06:29:09.668Z,19.57
2018-02-19T06:31:37.809Z,24.93
2018-02-19T06:34:06.831Z,23.00
2018-02-19T06:36:35.250Z,23.47
2018-02-19T06:39:03.386Z,23.47
2018-02-19T06:41:31.642Z,27.80
2018-02-19T06:43:59.828Z,22.37
2018-02-19T06:46:28.005Z,26.70
2018-02-19T06:48:56.249Z,23.33
2018-02-19T06:51:25.212Z,20.33
2018-02-19T06:53:54.260Z,26.77
2018-02-19T06:56:22.484Z,26.00
2018-02-19T06:58:53.038Z,29.17
2018-02-19T07:01:30.223Z,26.77
2018-02-19T07:04:06.006Z,29.83
2018-02-19T07:06:34.661Z,28.70
2018-02-19T07:09:03.588Z,25.87
2018-02-19T07:11:31.737Z,24.90
2018-02-19T07:14:00.765Z,31.27
2018-02-19T07:16:28.924Z,30.80
2018-02-19T07:18:57.828Z,27.67
2018-02-19T07:21:25.995Z,27.53
2018-02-19T07:23:54.165Z,31.43
2018-02-19T07:26:22.395Z,31.30
2018-02-19T07:28:50.600Z,28.67
2018-02-19T07:31:19.557Z,27.63
2018-02-19T07:33:48.397Z,34.63
2018-02-19T07:36:16.651Z,32.73
2018-02-19T07:38:45.560Z,32.93
2018-02-19T07:41:14.978Z,28.27
2018-02-19T07:43:43.123Z,35.90
2018-02-19T07:46:12.121Z,30.27
2018-02-19T07:48:41.005Z,28.40
2018-02-19T07:51:09.889Z,30.70
2018-02-19T07:53:38.792Z,33.93
2018-02-19T07:56:07.668Z,37.13
2018-02-19T07:58:35.795Z,36.37
2018-02-19T08:01:03.908Z,34.50
2018-02-19T08:03:32.034Z,33.50
2018-02-19T08:06:00.180Z,27.53
2018-02-19T08:08:28.315Z,31.97
2018-02-19T08:10:56.440Z,33.63
2018-02-19T08:13:24.577Z,32.27
2018-02-19T08:15:52.754Z,28.70
2018-02-19T08:18:21.674Z,28.27
2018-02-19T08:20:49.829Z,36.77
2018-02-19T08:23:18.708Z,34.43
2018-02-19T08:25:46.840Z,32.27
2018-02-19T08:28:15.038Z,33.03
2018-02-19T08:30:43.242Z,34.40
2018-02-19T08:33:11.372Z,31.77
2018-02-19T08:35:39.513Z,26.80
2018-02-19T08:38:07.632Z,33.30
2018-02-19T08:40:35.758Z,35.53
2018-02-19T08:43:03.975Z,33.47
2018-02-19T08:45:32.114Z,29.23
2018-02-19T08:48:01.063Z,28.90
2018-02-19T08:50:29.184Z,29.90
2018-02-19T08:52:57.308Z,27.47
2018-02-19T08:55:25.441Z,28.23
2018-02-19T08:57:53.574Z,28.73
2018-02-19T09:00:22.534Z,32.23
2018-02-19T09:02:50.654Z,29.77
2018-02-19T09:05:19.163Z,32.13
2018-02-19T09:07:47.311Z,27.20
2018-02-19T09:10:15.579Z,23.67
2018-02-19T09:12:44.483Z,27.83
2018-02-19T09:15:12.602Z,30.13
2018-02-19T09:17:40.730Z,27.23
2018-02-19T09:20:08.866Z,30.20
2018-02-19T09:22:36.994Z,30.63
2018-02-19T09:25:05.191Z,27.80
2018-02-19T09:27:33.319Z,29.67
2018-02-19T09:30:01.573Z,29.33
2018-02-19T09:32:29.750Z,31.27
2018-02-19T09:34:58.671Z,29.83
2018-02-19T09:37:26.816Z,37.93
2018-02-19T09:39:55.061Z,30.53
2018-02-19T09:42:23.223Z,28.37
2018-02-19T09:44:51.366Z,30.87
2018-02-19T09:47:19.492Z,30.33
2018-02-19T09:49:47.626Z,34.50
2018-02-19T09:52:15.770Z,34.73
2018-02-19T09:54:44.678Z,33.70
2018-02-19T09:57:13.578Z,32.50
2018-02-19T09:59:41.710Z,33.10
2018-02-19T10:02:09.884Z,33.47
2018-02-19T10:04:38.226Z,33.03
2018-02-19T10:07:07.139Z,32.90
2018-02-19T10:09:35.292Z,33.40
2018-02-19T10:12:03.447Z,30.87
2018-02-19T10:14:31.597Z,30.87
2018-02-19T10:17:00.835Z,32.17
2018-02-19T10:19:28.940Z,31.60
2018-02-19T10:21:57.047Z,34.73
2018-02-19T10:24:25.281Z,34.07
2018-02-19T10:26:53.418Z,33.60
2018-02-19T10:29:21.571Z,28.87
2018-02-19T10:31:49.713Z,34.43
2018-02-19T10:34:17.889Z,35.53
2018-02-19T10:36:46.030Z,37.07
2018-02-19T10:39:14.166Z,36.60
2018-02-19T10:41:42.343Z,33.03
2018-02-19T10:44:10.482Z,33.47
2018-02-19T10:46:38.660Z,35.27
2018-02-19T10:49:06.968Z,37.70
2018-02-19T10:51:35.167Z,33.67
2018-02-19T10:54:04.564Z,33.70
2018-02-19T10:56:33.342Z,35.43
2018-02-19T10:59:01.460Z,33.27
2018-02-19T11:01:29.585Z,30.90
2018-02-19T11:03:59.092Z,32.23
2018-02-19T11:06:28.010Z,35.23
2018-02-19T11:08:56.186Z,32.60
2018-02-19T11:11:24.318Z,29.50
2018-02-19T11:13:53.220Z,35.20
2018-02-19T11:16:22.101Z,30.53
2018-02-19T11:18:51.010Z,35.47
2018-02-19T11:21:19.134Z,31.97
2018-02-19T11:23:47.254Z,29.43
2018-02-19T11:26:15.457Z,32.90
2018-02-19T11:28:43.607Z,28.27
2018-02-19T11:31:11.730Z,30.20
2018-02-19T11:33:39.997Z,29.67
2018-02-19T11:36:08.173Z,32.07
2018-02-19T11:38:36.301Z,28.63
2018-02-19T11:41:04.439Z,32.87
2018-02-19T11:43:32.651Z,34.73
2018-02-19T11:46:00.850Z,34.90
2018-02-19T11:48:28.971Z,31.20
2018-02-19T11:50:57.919Z,33.43
2018-02-19T11:53:26.521Z,35.00
2018-02-19T11:55:54.702Z,30.73
2018-02-19T11:58:22.842Z,28.20
2018-02-19T12:00:51.510Z,30.10
2018-02-19T12:03:19.714Z,30.07
2018-02-19T12:05:47.896Z,29.73
2018-02-19T12:08:16.308Z,31.60
2018-02-19T12:10:45.265Z,30.13
2018-02-19T12:13:13.418Z,32.23
2018-02-19T12:15:55.750Z,29.97
2018-02-19T12:18:23.907Z,29.83
2018-02-19T12:20:52.136Z,32.63
2018-02-19T12:23:21.090Z,33.83
2018-02-19T12:25:49.249Z,31.90
2018-02-19T12:28:17.372Z,29.50
2018-02-19T12:30:46.718Z,29.80
2018-02-19T12:33:14.846Z,32.07
2018-02-19T12:35:43.782Z,27.13
2018-02-19T12:38:11.954Z,28.10
2018-02-19T12:40:40.090Z,36.10
2018-02-19T12:43:09.158Z,29.03
2018-02-19T12:45:37.440Z,27.27
2018-02-19T12:48:05.720Z,30.90
2018-02-19T12:50:33.994Z,28.77
2018-02-19T12:53:02.225Z,32.20
2018-02-19T12:55:30.453Z,29.07
2018-02-19T12:57:58.695Z,30.37
2018-02-19T13:00:26.948Z,31.03
2018-02-19T13:02:55.047Z,29.63
2018-02-19T13:05:23.324Z,26.83
2018-02-19T13:07:51.453Z,33.87
2018-02-19T13:10:20.357Z,30.80
2018-02-19T13:12:49.271Z,28.37
2018-02-19T13:15:17.433Z,28.03
2018-02-19T13:17:45.611Z,26.73
2018-02-19T13:20:15.209Z,28.43
2018-02-19T13:22:43.643Z,29.67
2018-02-19T13:25:11.893Z,31.97
2018-02-19T13:27:40.012Z,29.90
2018-02-19T13:30:08.156Z,30.93
2018-02-19T13:32:36.301Z,29.80
2018-02-19T13:35:04.718Z,26.33
2018-02-19T13:37:32.860Z,30.13
2018-02-19T13:40:00.981Z,27.67
2018-02-19T13:42:29.150Z,26.93
2018-02-19T13:44:57.318Z,24.77
2018-02-19T13:47:25.509Z,26.53
2018-02-19T13:49:53.590Z,25.40
2018-02-19T13:52:22.475Z,24.13
2018-02-19T13:54:51.422Z,28.53
2018-02-19T13:57:20.311Z,29.17
2018-02-19T13:59:48.430Z,28.07
2018-02-19T14:02:16.630Z,28.10
2018-02-19T14:04:45.143Z,26.20
2018-02-19T14:07:13.291Z,28.43
2018-02-19T14:09:45.799Z,26.87
2018-02-19T14:12:13.931Z,25.83
2018-02-19T14:14:42.823Z,23.40
2018-02-19T14:17:11.727Z,27.13
2018-02-19T14:19:39.849Z,27.67
2018-02-19T14:22:08.007Z,24.83
2018-02-19T14:24:36.136Z,28.13
2018-02-19T14:27:05.091Z,27.40
2018-02-19T14:29:33.280Z,28.80
2018-02-19T14:32:01.363Z,28.33
2018-02-19T14:34:30.296Z,27.40
2018-02-19T14:36:58.451Z,26.60
2018-02-19T14:39:26.621Z,30.10
2018-02-19T14:41:54.789Z,25.07
2018-02-19T14:44:23.796Z,25.50
2018-02-19T14:46:51.998Z,28.10
2018-02-19T14:49:20.143Z,26.40
2018-02-19T14:51:48.278Z,22.93
2018-02-19T14:54:16.402Z,26.80
2018-02-19T14:56:44.586Z,25.87
2018-02-19T14:59:12.712Z,29.47
2018-02-19T15:01:41.618Z,31.97
2018-02-19T15:04:10.533Z,32.87
2018-02-19T15:06:39.068Z,26.27
2018-02-19T15:09:07.990Z,27.50
2018-02-19T15:11:36.121Z,26.90
2018-02-19T15:14:08.230Z,30.43
2018-02-19T15:16:36.351Z,26.70
2018-02-19T15:19:04.542Z,30.10
2018-02-19T15:21:32.674Z,29.50
2018-02-19T15:24:00.782Z,31.83
2018-02-19T15:26:28.958Z,30.33
2018-02-19T15:28:57.133Z,29.70
2018-02-19T15:31:25.258Z,33.73
2018-02-19T15:33:53.445Z,28.47
2018-02-19T15:36:21.583Z,28.70
2018-02-19T15:38:50.497Z,31.93
2018-02-19T15:41:18.647Z,34.13
2018-02-19T15:43:47.557Z,27.50
2018-02-19T15:46:15.721Z,27.17
2018-02-19T15:48:43.848Z,31.53
2018-02-19T15:51:13.333Z,29.57
2018-02-19T15:53:41.461Z,29.70
2018-02-19T15:56:10.346Z,30.63
2018-02-19T15:58:39.251Z,30.27
2018-02-19T16:01:08.864Z,28.50
2018-02-19T16:03:37.728Z,30.73
2018-02-19T16:06:05.882Z,30.57
2018-02-19T16:08:34.005Z,30.37
2018-02-19T16:11:02.125Z,30.30
2018-02-19T16:13:30.311Z,28.63
2018-02-19T16:15:58.415Z,31.50
2018-02-19T16:18:27.280Z,31.63
2018-02-19T16:20:55.497Z,36.13
2018-02-19T16:23:23.692Z,35.40
2018-02-19T16:25:51.837Z,29.90
2018-02-19T16:28:19.982Z,32.30
2018-02-19T16:30:48.108Z,35.80
2018-02-19T16:33:16.265Z,31.63
2018-02-19T16:35:45.108Z,27.83
2018-02-19T16:38:13.237Z,31.33
2018-02-19T16:40:41.520Z,31.37
2018-02-19T16:43:10.447Z,33.13
2018-02-19T16:45:38.591Z,34.77
2018-02-19T16:48:06.755Z,34.53
2018-02-19T16:50:35.349Z,31.43
2018-02-19T16:53:03.484Z,32.50
2018-02-19T16:55:33.155Z,33.90
2018-02-19T16:58:01.280Z,33.03
2018-02-19T17:00:29.426Z,33.87
2018-02-19T17:02:57.682Z,35.33
2018-02-19T17:05:25.828Z,35.73
2018-02-19T17:07:53.981Z,36.37
2018-02-19T17:10:22.111Z,31.73
2018-02-19T17:12:50.296Z,36.40
2018-02-19T17:15:18.568Z,34.73
2018-02-19T17:17:46.714Z,35.37
2018-02-19T17:20:14.853Z,38.70
2018-02-19T17:22:42.961Z,36.33
2018-02-19T17:25:11.087Z,36.53
2018-02-19T17:27:39.972Z,29.93
2018-02-19T17:30:09.723Z,36.10
2018-02-19T17:32:37.859Z,34.10
2018-02-19T17:35:06.754Z,32.57
2018-02-19T17:37:35.237Z,31.90
2018-02-19T17:40:04.292Z,34.37
2018-02-19T17:42:32.565Z,33.73
2018-02-19T17:45:00.735Z,32.60
2018-02-19T17:47:29.059Z,32.47
2018-02-19T17:49:57.941Z,31.07
2018-02-19T17:52:26.189Z,32.07
2018-02-19T17:54:54.329Z,37.73
2018-02-19T17:57:22.524Z,37.37
2018-02-19T17:59:51.668Z,32.93
2018-02-19T18:02:20.574Z,36.40
2018-02-19T18:04:49.477Z,34.13
2018-02-19T18:07:17.658Z,37.13
2018-02-19T18:09:45.851Z,35.73
2018-02-19T18:12:13.980Z,35.50
2018-02-19T18:14:42.136Z,32.77
2018-02-19T18:17:10.577Z,38.27
2018-02-19T18:19:38.804Z,32.20
2018-02-19T18:22:07.671Z,31.60
2018-02-19T18:24:35.890Z,35.67
2018-02-19T18:27:04.850Z,40.37
2018-02-19T18:29:32.993Z,30.03
2018-02-19T18:32:01.136Z,31.13
2018-02-19T18:34:30.053Z,32.80
2018-02-19T18:36:59.037Z,36.43
2018-02-19T18:39:27.187Z,33.87
2018-02-19T18:41:56.212Z,33.67
2018-02-19T18:44:24.491Z,36.13
2018-02-19T18:46:56.678Z,39.90
2018-02-19T18:49:24.908Z,38.67
2018-02-19T18:51:53.823Z,35.47
2018-02-19T18:54:22.008Z,42.07
2018-02-19T18:56:50.157Z,34.00
2018-02-19T18:59:18.314Z,37.37
2018-02-19T19:01:47.326Z,31.90
2018-02-19T19:04:16.279Z,40.43
2018-02-19T19:06:44.460Z,37.07
2018-02-19T19:09:30.709Z,42.40
2018-02-19T19:11:59.096Z,39.47
2018-02-19T19:14:27.270Z,40.33
2018-02-19T19:16:55.439Z,41.10
2018-02-19T19:19:23.764Z,39.43
2018-02-19T19:21:51.949Z,40.20
2018-02-19T19:24:20.143Z,37.70
2018-02-19T19:26:49.200Z,39.43
2018-02-19T19:29:17.318Z,41.03
2018-02-19T19:31:45.498Z,52.87
2018-02-19T19:34:13.642Z,42.13
2018-02-19T19:36:41.773Z,39.60
2018-02-19T19:39:09.892Z,37.13
2018-02-19T19:41:38.035Z,36.70
2018-02-19T19:44:06.244Z,38.27
2018-02-19T19:46:35.141Z,33.20
2018-02-19T19:49:03.421Z,36.80
2018-02-19T19:51:31.614Z,29.90
2018-02-19T19:53:59.798Z,37.17
2018-02-19T19:56:27.940Z,40.37
2018-02-19T19:58:56.971Z,35.70
2018-02-19T20:01:25.621Z,34.57
2018-02-19T20:03:55.477Z,35.90
2018-02-19T20:06:23.590Z,38.10
2018-02-19T20:08:51.728Z,38.10
2018-02-19T20:11:19.886Z,37.30
2018-02-19T20:13:48.019Z,42.30
2018-02-19T20:16:16.192Z,39.53
2018-02-19T20:18:44.326Z,35.93
2018-02-19T20:21:12.465Z,36.90
2018-02-19T20:23:40.611Z,38.00
2018-02-19T20:26:08.768Z,35.07
2018-02-19T20:28:36.903Z,36.80
2018-02-19T20:31:05.075Z,39.10
2018-02-19T20:33:33.199Z,40.10
2018-02-19T20:36:01.400Z,35.77
2018-02-19T20:38:30.348Z,34.70
2018-02-19T20:40:58.555Z,40.30
2018-02-19T20:43:26.687Z,45.37
2018-02-19T20:45:54.872Z,36.07
2018-02-19T20:48:22.998Z,41.47
2018-02-19T20:50:51.158Z,39.57
2018-02-19T20:53:20.304Z,55.15
2018-02-19T20:55:48.416Z,38.70
2018-02-19T20:58:16.572Z,33.10
2018-02-19T21:10:03.967Z,34.00
2018-02-19T21:12:32.112Z,34.97
2018-02-19T21:15:00.265Z,44.40
2018-02-19T21:17:28.386Z,39.20
2018-02-19T21:19:56.547Z,36.80
2018-02-19T21:22:24.692Z,41.43
2018-02-19T21:24:52.833Z,42.60
2018-02-19T21:27:21.824Z,38.63
2018-02-19T21:29:50.865Z,42.50
2018-02-19T21:32:19.082Z,40.93
2018-02-19T21:34:47.248Z,38.33
2018-02-19T21:37:15.431Z,37.03
2018-02-19T21:39:44.361Z,46.93
2018-02-19T21:42:12.599Z,45.77
2018-02-19T21:44:40.782Z,37.83
2018-02-19T21:47:08.902Z,33.93
2018-02-19T21:49:37.121Z,42.13
2018-02-19T21:52:06.124Z,47.23
2018-02-19T21:54:35.078Z,47.63
2018-02-19T21:57:03.308Z,41.37
2018-02-19T21:59:32.232Z,39.70
2018-02-19T22:02:00.405Z,43.47
2018-02-19T22:04:28.660Z,43.10
2018-02-19T22:06:56.794Z,43.87
2018-02-19T22:09:25.782Z,45.33
2018-02-19T22:11:54.030Z,42.63
2018-02-19T22:14:22.960Z,46.33
2018-02-19T22:16:51.129Z,49.57
2018-02-19T22:19:19.324Z,47.13
2018-02-19T22:21:48.224Z,43.10
2018-02-19T22:24:17.184Z,55.07
2018-02-19T22:26:46.488Z,50.97
2018-02-19T22:29:14.668Z,49.37
2018-02-19T22:31:42.932Z,48.43
2018-02-19T22:34:11.138Z,44.50
2018-02-19T22:36:40.061Z,46.47
2018-02-19T22:39:08.198Z,53.23
2018-02-19T22:41:36.378Z,47.07
2018-02-19T22:44:05.311Z,50.63
2018-02-19T22:46:34.435Z,48.43
2018-02-19T22:49:02.627Z,47.93
2018-02-19T22:51:32.325Z,43.03
2018-02-19T22:54:00.488Z,50.00
2018-02-19T22:56:28.662Z,59.67
2018-02-19T22:58:56.843Z,52.93
2018-02-19T23:01:24.983Z,50.97
2018-02-19T23:03:53.108Z,61.60
2018-02-19T23:06:22.055Z,53.43
2018-02-19T23:08:50.282Z,52.83
2018-02-19T23:11:19.203Z,53.63
2018-02-19T23:13:47.339Z,61.50
2018-02-19T23:16:16.381Z,54.83
2018-02-19T23:18:44.557Z,44.40
2018-02-19T23:21:12.786Z,45.10
2018-02-19T23:23:41.681Z,44.57
2018-02-19T23:26:10.607Z,44.93
2018-02-19T23:28:38.798Z,44.27
2018-02-19T23:31:06.936Z,44.90
2018-02-19T23:33:35.927Z,47.20
2018-02-19T23:36:04.840Z,42.63
2018-02-19T23:38:32.973Z,49.70
2018-02-19T23:41:01.165Z,44.40
2018-02-19T23:43:30.064Z,54.37
2018-02-19T23:45:58.982Z,56.33
2018-02-19T23:48:27.252Z,53.17
2018-02-19T23:50:55.402Z,52.90
2018-02-19T23:53:24.360Z,54.37
2018-02-19T23:55:53.374Z,47.10
2018-02-19T23:58:22.278Z,62.13
